Golden Island — 3EVL8 — position and weather

sailwx.info

Track history (hours):
 
Tides and Currents Weather Stations Pressure Air Temp Water Temp Dewpoint Dewpoint Depression Visibility Wind Speed Wind Dir Waves Ship Positions

Golden Island

Last reported at 2017-Nov-04 17:56 UTC. Time now 2017-Nov-20 15:25 UTC.
Position N 36°22' E 014°52'.
Warning: this ship's position is 15 days out of date.

Length 189 m; draft 11 m.

Type: Ship. MMSI: 373492000.

Date/timePositionNaut miles runAvg speedWind from/ knotsBaromVisibWave heightAir tempDewpointWater temp
2017-Nov-04 17:56N 36°22' E 014°52'511.5
2017-Nov-04 17:30N 36°23' E 014°46'611.6
2017-Nov-04 17:00N 36°25' E 014°39'611.7
2017-Nov-04 16:30N 36°26' E 014°32'611.8
2017-Nov-04 16:00N 36°28' E 014°25'611.8
2017-Nov-04 15:30N 36°30' E 014°18'611.7
2017-Nov-04 15:00N 36°32' E 014°11'611.8
2017-Nov-04 14:30N 36°33' E 014°04'611.7
2017-Nov-04 14:00N 36°34' E 013°57'611.7
2017-Nov-04 13:29N 36°36' E 013°50'711.6
2017-Nov-04 12:53N 36°38' E 013°42'411.6
2017-Nov-04 12:31N 36°39' E 013°36'711.4
2017-Nov-04 11:51N 36°42' E 013°28'511.5
2017-Nov-04 11:26N 36°43' E 013°22'511.4
2017-Nov-04 10:57N 36°45' E 013°15'611.4
2017-Nov-04 10:24N 36°47' E 013°08'41511.5
2017-Nov-02 22:23N 37°15' E 004°29'4911.5
2017-Nov-02 18:07N 37°07' E 003°28'111.2
2017-Nov-02 18:01N 37°07' E 003°27'13811.5
2017-Nov-02 06:02N 36°41' E 000°37'911.1
2017-Nov-02 05:14N 36°39' E 000°27'311.0
2017-Nov-02 05:01N 36°39' E 000°23'510.9
2017-Nov-02 04:31N 36°38' E 000°17'  
2017-Oct-31 00:19N 35°21' W 011°56'5111.0
2017-Oct-30 19:42N 35°15' W 012°57'211.5
2017-Oct-30 19:29N 35°15' W 013°00'10911.4
2017-Oct-30 09:55N 35°02' W 015°12'611.1
2017-Oct-30 09:22N 35°01' W 015°20'511.1
2017-Oct-30 08:54N 35°00' W 015°26'411.0
2017-Oct-30 08:30N 34°60' W 015°31'511.1
2017-Oct-30 08:00N 34°59' W 015°38'711.1
2017-Oct-30 07:24N 34°58' W 015°46'411.0
2017-Oct-30 07:00N 34°58' W 015°51'1011.1
2017-Oct-30 06:03N 34°56' W 016°04'111.3
2017-Oct-30 06:00N 34°56' W 016°05'711.4
2017-Oct-30 05:26N 34°55' W 016°13'611.7
2017-Oct-30 04:57N 34°55' W 016°19'7311.3
2017-Oct-29 22:31N 34°46' W 017°47'111.6
2017-Oct-29 22:24N 34°46' W 017°49'911.6
2017-Oct-29 21:34N 34°45' W 018°01'112.3
2017-Oct-29 21:30N 34°44' W 018°02'611.4
2017-Oct-29 21:00N 34°44' W 018°09'1511.4
2017-Oct-29 19:43N 34°42' W 018°26'411.5
2017-Oct-29 19:22N 34°41' W 018°31'411.3
2017-Oct-29 19:00N 34°41' W 018°36'611.4
2017-Oct-29 18:30N 34°40' W 018°43'611.2
2017-Oct-29 18:00N 34°39' W 018°50'611.1
2017-Oct-29 17:30N 34°39' W 018°56'3611.2
2017-Oct-29 14:21N 34°34' W 019°39'3011.3
2017-Oct-29 11:42N 34°31' W 020°15'311.2
2017-Oct-29 11:25N 34°30' W 020°19'1011.0
2017-Oct-29 10:28N 34°29' W 020°31'910.6
2017-Oct-29 09:35N 34°28' W 020°43'110.6
2017-Oct-29 09:29N 34°28' W 020°44'610.8
2017-Oct-29 08:54N 34°27' W 020°51'610.8
2017-Oct-29 08:18N 34°26' W 020°59'311.0
2017-Oct-29 08:00N 34°26' W 021°03'611.1
2017-Oct-29 07:26N 34°25' W 021°11'611.2
2017-Oct-29 06:55N 34°24' W 021°18'511.3
2017-Oct-29 06:30N 34°24' W 021°23'611.3
2017-Oct-29 06:00N 34°23' W 021°30'711.3
2017-Oct-29 05:22N 34°22' W 021°39'  
Track history (hours):
 
Tides and Currents Weather Stations Pressure Air Temp Water Temp Dewpoint Dewpoint Depression Visibility Wind Speed Wind Dir Waves Ship Positions

Golden Island

Last reported at 2017-Nov-04 17:56 UTC. Time now 2017-Nov-20 15:25 UTC.
Position N 36°22' E 014°52'.
Warning: this ship's position is 15 days out of date.

Length 189 m; draft 11 m.

Type: Ship. MMSI: 373492000.

Date/timePositionNaut miles runAvg speedWind from/ knotsBaromVisibWave heightAir tempDewpointWater temp
2017-Nov-04 17:56N 36°22' E 014°52'511.5
2017-Nov-04 17:30N 36°23' E 014°46'611.6
2017-Nov-04 17:00N 36°25' E 014°39'611.7
2017-Nov-04 16:30N 36°26' E 014°32'611.8
2017-Nov-04 16:00N 36°28' E 014°25'611.8
2017-Nov-04 15:30N 36°30' E 014°18'611.7
2017-Nov-04 15:00N 36°32' E 014°11'611.8
2017-Nov-04 14:30N 36°33' E 014°04'611.7
2017-Nov-04 14:00N 36°34' E 013°57'611.7
2017-Nov-04 13:29N 36°36' E 013°50'711.6
2017-Nov-04 12:53N 36°38' E 013°42'411.6
2017-Nov-04 12:31N 36°39' E 013°36'711.4
2017-Nov-04 11:51N 36°42' E 013°28'511.5
2017-Nov-04 11:26N 36°43' E 013°22'511.4
2017-Nov-04 10:57N 36°45' E 013°15'611.4
2017-Nov-04 10:24N 36°47' E 013°08'41511.5
2017-Nov-02 22:23N 37°15' E 004°29'4911.5
2017-Nov-02 18:07N 37°07' E 003°28'111.2
2017-Nov-02 18:01N 37°07' E 003°27'13811.5
2017-Nov-02 06:02N 36°41' E 000°37'911.1
2017-Nov-02 05:14N 36°39' E 000°27'311.0
2017-Nov-02 05:01N 36°39' E 000°23'510.9
2017-Nov-02 04:31N 36°38' E 000°17'  
2017-Oct-31 00:19N 35°21' W 011°56'5111.0
2017-Oct-30 19:42N 35°15' W 012°57'211.5
2017-Oct-30 19:29N 35°15' W 013°00'10911.4
2017-Oct-30 09:55N 35°02' W 015°12'611.1
2017-Oct-30 09:22N 35°01' W 015°20'511.1
2017-Oct-30 08:54N 35°00' W 015°26'411.0
2017-Oct-30 08:30N 34°60' W 015°31'511.1
2017-Oct-30 08:00N 34°59' W 015°38'711.1
2017-Oct-30 07:24N 34°58' W 015°46'411.0
2017-Oct-30 07:00N 34°58' W 015°51'1011.1
2017-Oct-30 06:03N 34°56' W 016°04'111.3
2017-Oct-30 06:00N 34°56' W 016°05'711.4
2017-Oct-30 05:26N 34°55' W 016°13'611.7
2017-Oct-30 04:57N 34°55' W 016°19'7311.3
2017-Oct-29 22:31N 34°46' W 017°47'111.6
2017-Oct-29 22:24N 34°46' W 017°49'911.6
2017-Oct-29 21:34N 34°45' W 018°01'112.3
2017-Oct-29 21:30N 34°44' W 018°02'611.4
2017-Oct-29 21:00N 34°44' W 018°09'1511.4
2017-Oct-29 19:43N 34°42' W 018°26'411.5
2017-Oct-29 19:22N 34°41' W 018°31'411.3
2017-Oct-29 19:00N 34°41' W 018°36'611.4
2017-Oct-29 18:30N 34°40' W 018°43'611.2
2017-Oct-29 18:00N 34°39' W 018°50'611.1
2017-Oct-29 17:30N 34°39' W 018°56'3611.2
2017-Oct-29 14:21N 34°34' W 019°39'3011.3
2017-Oct-29 11:42N 34°31' W 020°15'311.2
2017-Oct-29 11:25N 34°30' W 020°19'1011.0
2017-Oct-29 10:28N 34°29' W 020°31'910.6
2017-Oct-29 09:35N 34°28' W 020°43'110.6
2017-Oct-29 09:29N 34°28' W 020°44'610.8
2017-Oct-29 08:54N 34°27' W 020°51'610.8
2017-Oct-29 08:18N 34°26' W 020°59'311.0
2017-Oct-29 08:00N 34°26' W 021°03'611.1
2017-Oct-29 07:26N 34°25' W 021°11'611.2
2017-Oct-29 06:55N 34°24' W 021°18'511.3
2017-Oct-29 06:30N 34°24' W 021°23'611.3
2017-Oct-29 06:00N 34°23' W 021°30'711.3
2017-Oct-29 05:22N 34°22' W 021°39'  

Dump ship's entire track history